createdAt,value
2022-09-06T00:01:11.659Z,18.10
2022-09-06T00:03:40.647Z,18.00
2022-09-06T00:06:14.780Z,18.00
2022-09-06T00:08:45.343Z,18.00
2022-09-06T00:11:14.122Z,18.00
2022-09-06T00:13:42.532Z,18.00
2022-09-06T00:16:14.601Z,18.00
2022-09-06T00:18:43.187Z,18.00
2022-09-06T00:21:19.184Z,18.00
2022-09-06T00:23:47.649Z,18.00
2022-09-06T00:26:16.414Z,18.00
2022-09-06T00:28:44.965Z,17.90
2022-09-06T00:31:15.564Z,17.80
2022-09-06T00:33:44.592Z,17.80
2022-09-06T00:36:15.409Z,17.80
2022-09-06T00:38:44.070Z,17.80
2022-09-06T00:41:15.700Z,17.80
2022-09-06T00:43:44.522Z,17.80
2022-09-06T00:46:18.963Z,17.90
2022-09-06T00:48:50.760Z,17.80
2022-09-06T00:51:25.449Z,17.80
2022-09-06T00:53:53.882Z,17.80
2022-09-06T00:56:22.571Z,17.70
2022-09-06T00:58:51.403Z,17.70
2022-09-06T01:01:19.795Z,17.60
2022-09-06T01:03:48.074Z,17.60
2022-09-06T01:06:29.213Z,17.60
2022-09-06T01:09:11.329Z,17.50
2022-09-06T01:12:05.773Z,17.50
2022-09-06T01:14:52.468Z,17.40
2022-09-06T01:17:34.508Z,17.40
2022-09-06T01:20:33.444Z,17.40
2022-09-06T01:24:04.369Z,17.30
2022-09-06T01:27:36.125Z,17.30
2022-09-06T01:30:09.455Z,17.30
2022-09-06T01:32:54.706Z,17.30
2022-09-06T01:35:34.424Z,17.40
2022-09-06T01:38:03.783Z,17.40
2022-09-06T01:40:35.666Z,17.40
2022-09-06T01:43:10.216Z,17.40
2022-09-06T01:45:58.119Z,17.50
2022-09-06T01:48:48.381Z,17.50
2022-09-06T01:51:27.497Z,17.40
2022-09-06T01:54:27.687Z,17.40
2022-09-06T01:57:14.527Z,17.40
2022-09-06T02:00:02.869Z,17.30
2022-09-06T02:02:46.864Z,17.20
2022-09-06T02:05:24.385Z,17.20
2022-09-06T02:07:59.087Z,17.10
2022-09-06T02:10:35.043Z,17.10
2022-09-06T02:13:07.386Z,17.00
2022-09-06T02:15:39.572Z,17.00
2022-09-06T02:18:17.101Z,17.00
2022-09-06T02:20:52.654Z,16.90
2022-09-06T02:23:27.409Z,16.90
2022-09-06T02:26:02.595Z,16.80
2022-09-06T02:28:30.798Z,16.90
2022-09-06T02:31:04.857Z,16.80
2022-09-06T02:33:35.904Z,16.80
2022-09-06T02:36:09.598Z,16.80
2022-09-06T02:38:41.460Z,16.80
2022-09-06T02:41:10.761Z,16.90
2022-09-06T02:43:38.841Z,16.80
2022-09-06T02:46:07.219Z,16.90
2022-09-06T02:48:36.745Z,16.80
2022-09-06T02:51:05.686Z,16.80
2022-09-06T02:53:34.199Z,16.80
2022-09-06T02:56:03.414Z,16.80
2022-09-06T02:58:31.445Z,16.80
2022-09-06T03:00:59.691Z,16.80
2022-09-06T03:03:28.507Z,16.80
2022-09-06T03:05:57.977Z,16.70
2022-09-06T03:08:29.261Z,16.70
2022-09-06T03:10:58.136Z,16.70
2022-09-06T03:13:27.040Z,16.70
2022-09-06T03:15:57.705Z,16.70
2022-09-06T03:18:27.308Z,16.70
2022-09-06T03:20:58.058Z,16.60
2022-09-06T03:23:28.509Z,16.60
2022-09-06T03:25:57.236Z,16.50
2022-09-06T03:28:25.744Z,16.50
2022-09-06T03:30:54.792Z,16.50
2022-09-06T03:33:23.021Z,16.50
2022-09-06T03:35:53.949Z,16.40
2022-09-06T03:38:24.636Z,16.50
2022-09-06T03:40:53.209Z,16.40
2022-09-06T03:43:23.460Z,16.40
2022-09-06T03:45:54.772Z,16.40
2022-09-06T03:48:25.350Z,16.40
2022-09-06T03:50:57.803Z,16.40
2022-09-06T03:53:29.055Z,16.50
2022-09-06T03:55:58.615Z,16.40
2022-09-06T03:58:31.168Z,16.50
2022-09-06T04:01:07.995Z,16.40
2022-09-06T04:03:37.032Z,16.40
2022-09-06T04:06:06.821Z,16.40
2022-09-06T04:08:38.137Z,16.40
2022-09-06T04:11:07.271Z,16.40
2022-09-06T04:13:36.719Z,16.40
2022-09-06T04:16:06.335Z,16.40
2022-09-06T04:18:34.804Z,16.40
2022-09-06T04:21:02.982Z,16.50
2022-09-06T04:23:33.475Z,16.40
2022-09-06T04:26:04.831Z,16.40
2022-09-06T04:28:33.079Z,16.40
2022-09-06T04:31:05.140Z,16.40
2022-09-06T04:33:36.396Z,16.50
2022-09-06T04:36:08.185Z,16.50
2022-09-06T04:38:39.174Z,16.50
2022-09-06T04:41:10.901Z,16.50
2022-09-06T04:43:39.114Z,16.60
2022-09-06T04:46:10.627Z,16.60
2022-09-06T04:48:38.729Z,16.60
2022-09-06T04:51:07.261Z,16.50
2022-09-06T04:53:35.334Z,16.50
2022-09-06T04:56:04.108Z,16.60
2022-09-06T04:58:33.694Z,16.60
2022-09-06T05:01:01.777Z,16.60
2022-09-06T05:03:29.813Z,16.70
2022-09-06T05:06:10.003Z,16.70
2022-09-06T05:08:39.526Z,16.60
2022-09-06T05:11:08.839Z,16.50
2022-09-06T05:13:39.283Z,16.60
2022-09-06T05:16:09.912Z,16.60
2022-09-06T05:18:38.044Z,16.60
2022-09-06T05:21:07.561Z,16.60
2022-09-06T05:23:35.595Z,16.70
2022-09-06T05:26:03.727Z,16.70
2022-09-06T05:28:31.991Z,16.70
2022-09-06T05:31:09.890Z,16.70
2022-09-06T05:33:38.831Z,16.70
2022-09-06T05:36:08.622Z,16.70
2022-09-06T05:38:36.672Z,16.70
2022-09-06T05:41:04.819Z,16.80
2022-09-06T05:43:32.836Z,16.80
2022-09-06T05:46:01.031Z,16.80
2022-09-06T05:48:36.091Z,16.90
2022-09-06T05:51:08.256Z,16.90
2022-09-06T05:53:37.035Z,16.80
2022-09-06T05:56:06.674Z,17.00
2022-09-06T05:58:34.748Z,16.90
2022-09-06T06:01:08.887Z,16.90
2022-09-06T06:03:38.956Z,16.90
2022-09-06T06:06:07.685Z,16.90
2022-09-06T06:08:36.829Z,16.80
2022-09-06T06:11:04.988Z,16.90
2022-09-06T06:13:35.000Z,16.90
2022-09-06T06:16:04.408Z,16.90
2022-09-06T06:18:32.566Z,16.90
2022-09-06T06:21:14.186Z,16.90
2022-09-06T06:23:44.317Z,16.90
2022-09-06T06:26:14.026Z,17.00
2022-09-06T06:28:42.344Z,17.00
2022-09-06T06:31:13.052Z,16.90
2022-09-06T06:33:41.676Z,16.90
2022-09-06T06:36:24.376Z,17.00
2022-09-06T06:38:55.202Z,17.00
2022-09-06T06:41:25.764Z,17.10
2022-09-06T06:43:54.521Z,17.10
2022-09-06T06:46:24.958Z,17.20
2022-09-06T06:48:55.258Z,17.20
2022-09-06T06:51:28.287Z,17.20
2022-09-06T06:53:57.803Z,17.30
2022-09-06T06:56:28.823Z,17.30
2022-09-06T06:58:59.625Z,17.40
2022-09-06T07:01:30.575Z,17.50
2022-09-06T07:04:00.436Z,17.60
2022-09-06T07:09:21.152Z,17.80
2022-09-06T07:11:49.910Z,18.00
2022-09-06T07:14:19.086Z,18.10
2022-09-06T07:16:47.219Z,18.20
2022-09-06T07:22:05.882Z,18.30
2022-09-06T07:24:34.878Z,18.30
2022-09-06T07:29:51.010Z,18.50
2022-09-06T07:32:19.003Z,18.50
2022-09-06T07:34:47.169Z,18.60
2022-09-06T07:37:16.676Z,18.70
2022-09-06T07:39:44.755Z,18.80
2022-09-06T07:42:12.767Z,19.00
2022-09-06T07:44:40.799Z,19.10
2022-09-06T07:55:35.718Z,19.20
2022-09-06T07:58:03.744Z,19.30
2022-09-06T08:00:31.889Z,19.40
2022-09-06T08:03:00.257Z,19.40
2022-09-06T08:11:07.499Z,19.50
2022-09-06T08:13:36.382Z,19.60
2022-09-06T08:16:07.092Z,19.60
2022-09-06T08:18:36.500Z,19.60
2022-09-06T08:21:12.734Z,19.70
2022-09-06T08:23:47.212Z,19.80
2022-09-06T08:26:16.097Z,19.90
2022-09-06T08:28:44.395Z,19.90
2022-09-06T08:31:14.770Z,20.00
2022-09-06T08:33:44.017Z,20.10
2022-09-06T08:36:12.751Z,20.00
2022-09-06T08:38:42.460Z,20.10
2022-09-06T08:41:20.101Z,20.20
2022-09-06T08:46:53.155Z,20.10
2022-09-06T08:49:21.751Z,20.20
2022-09-06T08:52:19.049Z,20.20
2022-09-06T08:54:56.454Z,20.40
2022-09-06T08:57:46.588Z,20.70
2022-09-06T09:00:15.467Z,20.90
2022-09-06T09:02:52.146Z,21.30
2022-09-06T09:05:30.896Z,21.40
2022-09-06T09:08:14.584Z,21.30
2022-09-06T09:10:49.954Z,21.30
2022-09-06T09:13:30.683Z,21.20
2022-09-06T09:15:59.593Z,21.00
2022-09-06T09:18:33.465Z,20.90
2022-09-06T09:21:01.739Z,21.00
2022-09-06T09:23:31.885Z,21.30
2022-09-06T09:26:07.059Z,21.60
2022-09-06T09:28:35.824Z,21.80
2022-09-06T09:31:04.674Z,22.00
2022-09-06T09:33:36.947Z,22.00
2022-09-06T09:36:12.032Z,22.00
2022-09-06T09:38:45.343Z,22.10
2022-09-06T09:41:30.221Z,22.10
2022-09-06T09:44:04.751Z,22.20
2022-09-06T09:46:35.860Z,22.20
2022-09-06T09:49:11.411Z,22.30
2022-09-06T09:51:42.100Z,22.40
2022-09-06T09:54:12.950Z,22.50
2022-09-06T09:56:49.136Z,22.40
2022-09-06T09:59:26.850Z,22.50
2022-09-06T10:02:00.021Z,22.50
2022-09-06T10:07:18.524Z,22.50
2022-09-06T10:09:49.948Z,22.60
2022-09-06T10:12:29.883Z,22.60
2022-09-06T10:15:00.209Z,22.80
2022-09-06T10:17:34.106Z,22.80
2022-09-06T10:20:09.147Z,22.90
2022-09-06T10:22:52.714Z,22.90
2022-09-06T10:25:49.004Z,23.00
2022-09-06T10:28:38.918Z,23.10
2022-09-06T10:31:47.430Z,23.20
2022-09-06T10:34:57.824Z,23.30
2022-09-06T10:37:45.799Z,23.30
2022-09-06T10:40:30.265Z,23.40
2022-09-06T10:43:01.870Z,23.50
2022-09-06T10:45:46.764Z,23.50
2022-09-06T10:48:25.028Z,23.40
2022-09-06T10:50:58.579Z,23.20
2022-09-06T10:53:36.710Z,23.30
2022-09-06T10:56:11.775Z,23.20
2022-09-06T11:01:47.246Z,23.10
2022-09-06T11:04:24.684Z,23.30
2022-09-06T11:06:58.476Z,23.40
2022-09-06T11:09:35.905Z,23.50
2022-09-06T11:12:10.897Z,23.50
2022-09-06T11:14:40.382Z,23.50
2022-09-06T11:17:14.950Z,23.40
2022-09-06T11:19:52.990Z,23.20
2022-09-06T11:22:59.558Z,23.10
2022-09-06T11:25:55.125Z,22.90
2022-09-06T11:28:34.815Z,22.90
2022-09-06T11:31:04.814Z,22.80
2022-09-06T11:33:39.719Z,22.70
2022-09-06T11:36:20.551Z,22.70
2022-09-06T11:39:01.042Z,22.70
2022-09-06T11:41:33.755Z,22.60
2022-09-06T11:44:02.689Z,22.50
2022-09-06T11:47:02.964Z,22.60
2022-09-06T11:49:41.768Z,22.60
2022-09-06T11:53:00.823Z,22.70
2022-09-06T11:55:38.645Z,22.90
2022-09-06T11:58:20.551Z,23.30
2022-09-06T12:01:40.808Z,23.50
2022-09-06T12:04:11.718Z,23.90
2022-09-06T12:06:44.169Z,24.20
2022-09-06T12:09:33.758Z,24.30
2022-09-06T12:12:04.163Z,24.50
2022-09-06T12:14:39.637Z,24.60
2022-09-06T12:17:47.554Z,24.60
2022-09-06T12:21:06.909Z,24.70
2022-09-06T12:23:45.353Z,24.90
2022-09-06T12:26:13.887Z,25.10
2022-09-06T12:28:48.336Z,25.10
2022-09-06T12:31:39.543Z,25.20
2022-09-06T12:34:14.171Z,25.30
2022-09-06T12:36:59.089Z,25.30
2022-09-06T12:39:29.187Z,25.10
2022-09-06T12:42:02.008Z,24.90
2022-09-06T12:44:35.130Z,24.70
2022-09-06T12:47:14.944Z,24.60
2022-09-06T12:49:43.177Z,24.50
2022-09-06T12:52:16.071Z,24.50
2022-09-06T12:54:49.514Z,24.40
2022-09-06T12:57:22.457Z,24.40
2022-09-06T12:59:55.995Z,24.40
2022-09-06T13:02:38.683Z,24.60
2022-09-06T13:05:11.072Z,24.70
2022-09-06T13:07:45.310Z,24.90
2022-09-06T13:10:20.335Z,24.90
2022-09-06T13:12:53.003Z,24.80
2022-09-06T13:15:26.137Z,24.90
2022-09-06T13:17:56.621Z,24.80
2022-09-06T13:20:29.225Z,24.80
2022-09-06T13:23:10.925Z,24.70
2022-09-06T13:25:50.667Z,24.60
2022-09-06T13:28:28.145Z,24.40
2022-09-06T13:31:10.583Z,24.40
2022-09-06T13:33:39.091Z,24.30
2022-09-06T13:36:22.724Z,24.30
2022-09-06T13:38:51.687Z,24.30
2022-09-06T13:41:42.259Z,24.30
2022-09-06T13:44:29.622Z,24.40
2022-09-06T13:46:58.110Z,24.40
2022-09-06T13:49:27.206Z,24.40
2022-09-06T13:52:00.198Z,24.30
2022-09-06T13:54:28.596Z,24.40
2022-09-06T13:56:58.450Z,24.40
2022-09-06T13:59:26.972Z,24.40
2022-09-06T14:02:02.304Z,24.40
2022-09-06T14:04:31.831Z,24.40
2022-09-06T14:07:00.259Z,24.40
2022-09-06T14:09:28.272Z,24.20
2022-09-06T14:11:58.119Z,24.10
2022-09-06T14:14:26.376Z,24.00
2022-09-06T14:16:54.813Z,23.90
2022-09-06T14:19:23.180Z,23.80
2022-09-06T14:21:51.673Z,23.70
2022-09-06T14:24:20.141Z,23.70
2022-09-06T14:26:48.773Z,23.80
2022-09-06T14:29:18.293Z,23.90
2022-09-06T14:31:48.297Z,24.10
2022-09-06T14:34:16.686Z,24.40
2022-09-06T14:36:44.825Z,24.70
2022-09-06T14:39:12.908Z,25.00
2022-09-06T14:41:41.134Z,25.10
2022-09-06T14:44:10.020Z,25.20
2022-09-06T14:46:39.710Z,25.30
2022-09-06T14:49:11.134Z,25.30
2022-09-06T14:51:40.623Z,25.10
2022-09-06T14:54:12.216Z,25.00
2022-09-06T14:56:44.085Z,24.90
2022-09-06T14:59:12.826Z,24.80
2022-09-06T15:01:42.445Z,24.70
2022-09-06T15:04:12.413Z,24.60
2022-09-06T15:06:44.868Z,24.50
2022-09-06T15:09:13.122Z,24.40
2022-09-06T15:11:44.562Z,24.30
2022-09-06T15:14:17.520Z,24.20
2022-09-06T15:16:53.309Z,24.30
2022-09-06T15:19:24.782Z,24.00
2022-09-06T15:21:53.071Z,23.90
2022-09-06T15:24:21.779Z,23.80
2022-09-06T15:26:50.262Z,23.80
2022-09-06T15:29:19.180Z,23.80
2022-09-06T15:31:51.373Z,23.80
2022-09-06T15:34:21.582Z,23.90
2022-09-06T15:36:50.292Z,23.90
2022-09-06T15:39:18.914Z,23.90
2022-09-06T15:41:47.247Z,23.80
2022-09-06T15:44:18.760Z,23.70
2022-09-06T15:46:52.374Z,23.50
2022-09-06T15:49:27.616Z,23.50
2022-09-06T15:51:58.117Z,23.30
2022-09-06T15:54:47.954Z,23.20
2022-09-06T15:57:17.578Z,23.00
2022-09-06T15:59:46.529Z,23.00
2022-09-06T16:02:16.184Z,22.80
2022-09-06T16:04:44.392Z,22.60
2022-09-06T16:07:12.730Z,22.60
2022-09-06T16:09:40.910Z,22.50
2022-09-06T16:12:09.548Z,22.40
2022-09-06T16:14:39.043Z,22.40
2022-09-06T16:17:07.244Z,22.40
2022-09-06T16:19:36.716Z,22.30
2022-09-06T16:22:05.321Z,22.30
2022-09-06T16:24:33.660Z,22.20
2022-09-06T16:27:02.219Z,22.20
2022-09-06T16:29:31.768Z,22.20
2022-09-06T16:32:00.549Z,22.10
2022-09-06T16:34:28.747Z,22.00
2022-09-06T16:36:58.416Z,21.90
2022-09-06T16:39:26.953Z,21.90
2022-09-06T16:41:55.313Z,21.80
2022-09-06T16:44:23.352Z,21.80
2022-09-06T16:46:53.619Z,21.60
2022-09-06T16:49:21.796Z,21.50
2022-09-06T16:51:51.799Z,21.50
2022-09-06T16:54:21.686Z,21.50
2022-09-06T16:56:49.892Z,21.40
2022-09-06T16:59:18.061Z,21.30
2022-09-06T17:01:46.802Z,21.30
2022-09-06T17:04:16.227Z,21.20
2022-09-06T17:06:45.708Z,21.10
2022-09-06T17:09:16.306Z,21.10
2022-09-06T17:11:46.841Z,21.00
2022-09-06T17:14:14.965Z,21.00
2022-09-06T17:17:00.780Z,20.90
2022-09-06T17:19:29.698Z,20.90
2022-09-06T17:21:58.150Z,20.80
2022-09-06T17:24:27.321Z,20.70
2022-09-06T17:26:56.712Z,20.70
2022-09-06T17:29:28.040Z,20.60
2022-09-06T17:31:56.465Z,20.50
2022-09-06T17:34:24.655Z,20.50
2022-09-06T17:36:53.737Z,20.40
2022-09-06T17:39:22.871Z,20.30
2022-09-06T17:41:54.176Z,20.30
2022-09-06T17:44:26.650Z,20.20
2022-09-06T17:47:12.641Z,20.10
2022-09-06T17:49:42.253Z,20.10
2022-09-06T17:52:10.717Z,20.00
2022-09-06T17:54:38.878Z,19.90
2022-09-06T17:57:07.079Z,19.80
2022-09-06T17:59:36.558Z,19.90
2022-09-06T18:02:05.884Z,19.90
2022-09-06T18:04:34.399Z,19.90
2022-09-06T18:07:02.554Z,19.80
2022-09-06T18:09:30.861Z,19.80
2022-09-06T18:11:59.162Z,19.80
2022-09-06T18:14:28.624Z,19.70
2022-09-06T18:16:58.332Z,19.60
2022-09-06T18:19:27.441Z,19.60
2022-09-06T18:21:57.091Z,19.60
2022-09-06T18:24:25.438Z,19.60
2022-09-06T18:26:53.580Z,19.50
2022-09-06T18:29:21.984Z,19.50
2022-09-06T18:31:53.422Z,19.50
2022-09-06T18:34:23.151Z,19.50
2022-09-06T18:36:51.353Z,19.50
2022-09-06T18:39:20.340Z,19.50
2022-09-06T18:42:11.034Z,19.50
2022-09-06T18:44:40.577Z,19.50
2022-09-06T18:47:12.141Z,19.50
2022-09-06T18:49:44.172Z,19.50
2022-09-06T18:52:12.637Z,19.40
2022-09-06T18:54:40.713Z,19.40
2022-09-06T18:57:08.975Z,19.30
2022-09-06T18:59:37.104Z,19.30
2022-09-06T19:02:05.296Z,19.30
2022-09-06T19:04:33.555Z,19.30
2022-09-06T19:07:04.890Z,19.30
2022-09-06T19:09:33.053Z,19.30
2022-09-06T19:12:01.411Z,19.30
2022-09-06T19:14:29.518Z,19.30
2022-09-06T19:16:57.654Z,19.30
2022-09-06T19:19:25.873Z,19.30
2022-09-06T19:21:54.007Z,19.20
2022-09-06T19:24:24.534Z,19.20
2022-09-06T19:26:55.146Z,19.30
2022-09-06T19:29:23.866Z,19.20
2022-09-06T19:31:52.933Z,19.20
2022-09-06T19:34:22.009Z,19.20
2022-09-06T19:36:52.053Z,19.20
2022-09-06T19:39:21.399Z,19.20
2022-09-06T19:41:51.183Z,19.10
2022-09-06T19:44:20.680Z,19.10
2022-09-06T19:46:49.220Z,18.90
2022-09-06T19:49:20.096Z,18.90
2022-09-06T19:51:50.800Z,18.80
2022-09-06T19:54:20.344Z,18.70
2022-09-06T19:56:50.198Z,18.70
2022-09-06T19:59:18.718Z,18.70
2022-09-06T20:01:47.741Z,18.60
2022-09-06T20:04:17.026Z,18.60
2022-09-06T20:06:46.026Z,18.60
2022-09-06T20:09:15.863Z,18.60
2022-09-06T20:11:44.558Z,18.50
2022-09-06T20:14:14.515Z,18.50
2022-09-06T20:16:43.205Z,18.60
2022-09-06T20:19:14.864Z,18.50
2022-09-06T20:21:43.998Z,18.40
2022-09-06T20:24:12.083Z,18.40
2022-09-06T20:26:40.399Z,18.30
2022-09-06T20:29:08.819Z,18.30
2022-09-06T20:31:39.212Z,18.20
2022-09-06T20:34:07.982Z,18.20
2022-09-06T20:36:36.711Z,18.10
2022-09-06T20:39:05.656Z,18.10
2022-09-06T20:41:34.756Z,18.10
2022-09-06T20:44:03.706Z,18.10
2022-09-06T20:46:35.068Z,18.10
2022-09-06T20:49:06.576Z,18.00
2022-09-06T20:51:38.523Z,18.00
2022-09-06T20:54:07.417Z,17.90
2022-09-06T20:56:38.640Z,18.00
2022-09-06T20:59:13.657Z,17.90
2022-09-06T21:01:44.514Z,17.90
2022-09-06T21:04:16.865Z,17.80
2022-09-06T21:06:45.843Z,17.80
2022-09-06T21:09:15.736Z,17.80
2022-09-06T21:11:45.178Z,17.70
2022-09-06T21:14:13.808Z,17.70
2022-09-06T21:16:42.141Z,17.60
2022-09-06T21:19:13.499Z,17.70
2022-09-06T21:21:42.283Z,17.70
2022-09-06T21:24:12.252Z,17.70
2022-09-06T21:26:42.831Z,17.60
2022-09-06T21:29:11.423Z,17.60
2022-09-06T21:31:39.641Z,17.60
2022-09-06T21:34:16.808Z,17.60
2022-09-06T21:36:46.827Z,17.60
2022-09-06T21:39:16.032Z,17.50
2022-09-06T21:41:45.774Z,17.50
2022-09-06T21:44:13.946Z,17.40
2022-09-06T21:46:43.231Z,17.50
2022-09-06T21:49:14.268Z,17.40
2022-09-06T21:51:42.961Z,17.40
2022-09-06T21:54:12.517Z,17.40
2022-09-06T21:56:41.172Z,17.30
2022-09-06T21:59:10.885Z,17.40
2022-09-06T22:01:43.165Z,17.30
2022-09-06T22:04:14.478Z,17.30
2022-09-06T22:06:42.628Z,17.30
2022-09-06T22:09:14.124Z,17.30
2022-09-06T22:11:45.360Z,17.20
2022-09-06T22:14:15.814Z,17.30
2022-09-06T22:16:44.236Z,17.20
2022-09-06T22:19:12.898Z,17.10
2022-09-06T22:21:41.363Z,17.10
2022-09-06T22:24:12.145Z,17.10
2022-09-06T22:26:42.958Z,17.10
2022-09-06T22:29:15.050Z,17.10
2022-09-06T22:31:43.877Z,17.00
2022-09-06T22:34:12.363Z,17.10
2022-09-06T22:36:40.593Z,17.10
2022-09-06T22:39:09.496Z,17.10
2022-09-06T22:41:37.684Z,17.10
2022-09-06T22:44:07.656Z,17.00
2022-09-06T22:46:37.001Z,17.00
2022-09-06T22:49:05.440Z,17.00
2022-09-06T22:51:34.110Z,17.00
2022-09-06T22:54:02.477Z,17.00
2022-09-06T22:56:30.587Z,16.90
2022-09-06T22:59:00.801Z,16.90
2022-09-06T23:01:32.607Z,16.90
2022-09-06T23:04:01.122Z,16.80
2022-09-06T23:06:29.326Z,16.90
2022-09-06T23:08:57.482Z,16.80
2022-09-06T23:11:25.902Z,16.80
2022-09-06T23:13:57.570Z,16.80
2022-09-06T23:16:27.038Z,16.70
2022-09-06T23:18:57.403Z,16.60
2022-09-06T23:21:27.448Z,16.70
2022-09-06T23:23:57.763Z,16.70
2022-09-06T23:26:30.321Z,16.70
2022-09-06T23:28:58.587Z,16.70
2022-09-06T23:31:31.329Z,16.70
2022-09-06T23:34:02.793Z,16.70
2022-09-06T23:36:32.525Z,16.70
2022-09-06T23:39:02.113Z,16.60
2022-09-06T23:41:30.454Z,16.60
2022-09-06T23:43:58.617Z,16.60
2022-09-06T23:46:27.581Z,16.60
2022-09-06T23:48:55.806Z,16.60
2022-09-06T23:51:25.396Z,16.50
2022-09-06T23:53:53.845Z,16.50
2022-09-06T23:56:22.406Z,16.50
2022-09-06T23:58:50.560Z,16.50
